createdAt,value
2023-03-06T00:00:06.675Z,20.60
2023-03-06T00:05:35.665Z,16.42
2023-03-06T00:11:05.568Z,16.02
2023-03-06T00:16:34.490Z,17.17
2023-03-06T00:22:03.916Z,18.73
2023-03-06T00:27:29.033Z,11.05
2023-03-06T00:32:53.855Z,15.27
2023-03-06T00:38:16.632Z,13.30
2023-03-06T00:43:46.896Z,9.77
2023-03-06T00:49:15.430Z,19.67
2023-03-06T00:54:44.234Z,13.90
2023-03-06T01:00:15.946Z,11.93
2023-03-06T01:05:43.709Z,10.38
2023-03-06T01:11:06.947Z,17.48
2023-03-06T01:16:31.234Z,16.40
2023-03-06T01:22:00.450Z,14.13
2023-03-06T01:27:29.473Z,4.93
2023-03-06T01:32:54.418Z,9.13
2023-03-06T01:38:20.874Z,6.05
2023-03-06T01:43:49.755Z,8.02
2023-03-06T01:49:16.266Z,11.57
2023-03-06T01:54:41.740Z,19.15
2023-03-06T02:00:09.315Z,12.80
2023-03-06T02:05:42.274Z,13.57
2023-03-06T02:11:14.733Z,14.77
2023-03-06T02:16:44.115Z,11.55
2023-03-06T02:22:16.019Z,9.15
2023-03-06T02:27:45.855Z,15.02
2023-03-06T02:33:14.133Z,11.50
2023-03-06T02:38:38.537Z,16.17
2023-03-06T02:44:08.562Z,10.00
2023-03-06T02:49:37.316Z,10.85
2023-03-06T02:55:01.418Z,12.18
2023-03-06T03:00:31.420Z,11.80
2023-03-06T03:06:02.520Z,9.57
2023-03-06T03:11:29.196Z,12.35
2023-03-06T03:16:54.159Z,10.20
2023-03-06T03:22:16.858Z,10.35
2023-03-06T03:27:41.068Z,11.23
2023-03-06T03:33:09.939Z,10.40
2023-03-06T03:38:39.170Z,8.48
2023-03-06T03:44:08.497Z,12.70
2023-03-06T03:49:39.880Z,13.57
2023-03-06T03:55:02.972Z,12.45
2023-03-06T04:00:26.025Z,13.85
2023-03-06T04:06:02.910Z,15.40
2023-03-06T04:11:25.415Z,15.30
2023-03-06T04:22:20.374Z,11.10
2023-03-06T04:27:49.478Z,11.40
2023-03-06T04:33:17.898Z,15.88
2023-03-06T04:38:47.338Z,26.63
2023-03-06T04:44:14.591Z,17.15
2023-03-06T04:49:43.573Z,16.00
2023-03-06T04:55:15.032Z,15.95
2023-03-06T05:00:38.048Z,15.80
2023-03-06T05:06:03.040Z,13.23
2023-03-06T05:11:28.328Z,13.50
2023-03-06T05:16:51.764Z,14.25
2023-03-06T05:22:14.568Z,15.30
2023-03-06T05:27:38.897Z,19.17
2023-03-06T05:33:02.521Z,12.73
2023-03-06T05:38:27.234Z,12.48
2023-03-06T05:43:53.770Z,10.15
2023-03-06T05:49:17.261Z,14.40
2023-03-06T05:54:41.030Z,14.30
2023-03-06T06:00:11.778Z,24.08
2023-03-06T06:05:45.271Z,33.13
2023-03-06T06:11:13.616Z,37.10
2023-03-06T06:16:43.439Z,26.93
2023-03-06T06:22:13.053Z,17.25
2023-03-06T06:27:35.839Z,21.90
2023-03-06T06:33:05.818Z,36.90
2023-03-06T06:38:34.706Z,19.30
2023-03-06T06:44:08.435Z,20.57
2023-03-06T06:49:32.562Z,12.25
2023-03-06T06:55:01.623Z,13.70
2023-03-06T07:00:26.999Z,12.63
2023-03-06T07:05:57.751Z,13.60
2023-03-06T07:11:26.664Z,18.15
2023-03-06T07:16:55.467Z,13.10
2023-03-06T07:22:26.194Z,20.10
2023-03-06T07:33:17.617Z,10.75
2023-03-06T07:38:47.792Z,15.48
2023-03-06T07:44:10.548Z,6.70
2023-03-06T07:49:39.074Z,12.43
2023-03-06T07:55:03.834Z,9.75
2023-03-06T08:00:33.486Z,10.05
2023-03-06T08:06:09.168Z,15.18
2023-03-06T08:11:39.138Z,6.50
2023-03-06T08:17:07.811Z,11.82
2023-03-06T08:22:32.503Z,5.28
2023-03-06T08:28:03.174Z,7.23
2023-03-06T08:33:31.456Z,10.80
2023-03-06T08:38:54.732Z,14.95
2023-03-06T08:44:24.822Z,11.53
2023-03-06T08:49:47.977Z,10.52
2023-03-06T08:55:16.380Z,10.98
2023-03-06T09:00:43.082Z,8.35
2023-03-06T09:06:11.829Z,16.73
2023-03-06T09:11:40.622Z,7.03
2023-03-06T09:17:06.434Z,12.02
2023-03-06T09:22:33.286Z,10.10
2023-03-06T09:28:10.447Z,10.35
2023-03-06T09:33:40.801Z,8.60
2023-03-06T09:39:10.244Z,7.40
2023-03-06T09:44:37.102Z,9.32
2023-03-06T09:50:12.775Z,17.55
2023-03-06T09:55:41.357Z,14.30
2023-03-06T10:01:05.778Z,7.78
2023-03-06T10:06:35.564Z,10.35
2023-03-06T10:12:03.963Z,7.35
2023-03-06T10:17:27.699Z,19.25
2023-03-06T10:23:15.220Z,10.77
2023-03-06T10:28:44.117Z,6.15
2023-03-06T10:34:18.746Z,6.63
2023-03-06T10:39:45.505Z,13.13
2023-03-06T10:45:15.366Z,11.30
2023-03-06T10:50:41.348Z,17.88
2023-03-06T10:56:05.878Z,11.80
2023-03-06T11:01:32.260Z,9.27
2023-03-06T11:07:09.315Z,7.85
2023-03-06T11:12:39.724Z,10.80
2023-03-06T11:18:28.048Z,8.93
2023-03-06T11:23:58.126Z,4.78
2023-03-06T11:29:27.487Z,6.03
2023-03-06T11:34:58.733Z,8.30
2023-03-06T11:40:31.989Z,5.15
2023-03-06T11:45:59.282Z,12.93
2023-03-06T11:51:23.470Z,18.73
2023-03-06T11:56:52.551Z,4.72
2023-03-06T12:02:26.566Z,8.88
2023-03-06T12:07:58.469Z,17.05
2023-03-06T12:13:44.143Z,11.50
2023-03-06T12:19:22.757Z,8.82
2023-03-06T12:24:52.222Z,8.85
2023-03-06T12:30:39.381Z,6.40
2023-03-06T12:36:18.742Z,22.13
2023-03-06T12:41:44.662Z,21.10
2023-03-06T12:47:10.772Z,10.27
2023-03-06T12:52:42.193Z,10.82
2023-03-06T12:58:18.937Z,10.07
2023-03-06T13:04:05.030Z,15.13
2023-03-06T13:09:37.980Z,15.00
2023-03-06T13:15:28.709Z,10.63
2023-03-06T13:20:54.006Z,17.05
2023-03-06T13:26:32.034Z,13.75
2023-03-06T13:32:15.847Z,12.07
2023-03-06T13:37:50.050Z,15.35
2023-03-06T13:43:22.794Z,12.40
2023-03-06T13:49:05.831Z,29.35
2023-03-06T13:54:35.004Z,18.25
2023-03-06T14:00:21.766Z,14.15
2023-03-06T14:05:47.265Z,18.27
2023-03-06T14:11:20.125Z,12.90
2023-03-06T14:16:50.744Z,21.33
2023-03-06T14:22:23.246Z,12.68
2023-03-06T14:27:53.566Z,10.60
2023-03-06T14:33:30.425Z,15.52
2023-03-06T14:38:58.227Z,9.35
2023-03-06T14:44:22.140Z,7.13
2023-03-06T14:50:05.238Z,15.35
2023-03-06T14:55:36.766Z,19.80
2023-03-06T15:01:06.857Z,20.38
2023-03-06T15:06:37.813Z,16.15
2023-03-06T15:12:03.068Z,32.75
2023-03-06T15:17:29.898Z,19.92
2023-03-06T15:22:58.548Z,40.42
2023-03-06T15:28:32.675Z,40.78
2023-03-06T15:34:17.562Z,22.20
2023-03-06T15:39:47.081Z,18.15
2023-03-06T15:45:19.145Z,12.73
2023-03-06T15:50:42.928Z,12.25
2023-03-06T15:56:06.659Z,16.33
2023-03-06T16:01:34.674Z,26.25
2023-03-06T16:07:02.093Z,14.13
2023-03-06T16:12:29.419Z,26.38
2023-03-06T16:17:59.816Z,26.10
2023-03-06T16:23:28.337Z,29.45
2023-03-06T16:28:54.868Z,33.92
2023-03-06T16:34:24.418Z,33.15
2023-03-06T16:39:52.747Z,58.20
2023-03-06T16:45:19.712Z,27.83
2023-03-06T16:50:44.320Z,42.03
2023-03-06T16:56:07.741Z,38.13
2023-03-06T17:01:36.470Z,23.40
2023-03-06T17:07:07.200Z,42.77
2023-03-06T17:12:35.585Z,34.08
2023-03-06T17:18:00.872Z,35.22
2023-03-06T17:23:30.970Z,46.00
2023-03-06T17:28:59.504Z,49.22
2023-03-06T17:34:24.542Z,20.77
2023-03-06T17:39:50.014Z,34.60
2023-03-06T17:45:19.005Z,25.77
2023-03-06T17:50:53.783Z,35.47
2023-03-06T17:56:21.339Z,56.05
2023-03-06T18:01:49.648Z,18.98
2023-03-06T18:07:18.649Z,22.97
2023-03-06T18:12:49.013Z,15.67
2023-03-06T18:18:17.858Z,18.55
2023-03-06T18:23:46.674Z,25.10
2023-03-06T18:29:17.655Z,16.50
2023-03-06T18:34:46.579Z,21.77
2023-03-06T18:40:15.278Z,21.80
2023-03-06T18:45:54.125Z,22.27
2023-03-06T18:51:22.723Z,14.38
2023-03-06T18:56:50.254Z,21.23
2023-03-06T19:02:20.148Z,19.30
2023-03-06T19:07:48.070Z,24.45
2023-03-06T19:13:16.875Z,23.50
2023-03-06T19:18:45.968Z,24.85
2023-03-06T19:24:13.325Z,27.20
2023-03-06T19:29:38.781Z,21.98
2023-03-06T19:35:06.099Z,31.13
2023-03-06T19:40:30.086Z,24.13
2023-03-06T19:45:59.003Z,31.17
2023-03-06T19:51:29.443Z,26.67
2023-03-06T19:56:57.353Z,11.90
2023-03-06T20:02:26.441Z,13.43
2023-03-06T20:13:13.772Z,17.58
2023-03-06T20:18:37.009Z,21.15
2023-03-06T20:23:59.650Z,23.75
2023-03-06T20:29:24.996Z,24.00
2023-03-06T20:34:48.216Z,19.33
2023-03-06T20:40:17.077Z,27.30
2023-03-06T20:45:41.381Z,16.60
2023-03-06T20:51:11.057Z,14.43
2023-03-06T20:56:34.719Z,13.85
2023-03-06T21:02:01.419Z,16.27
2023-03-06T21:07:29.871Z,15.55
2023-03-06T21:12:54.699Z,18.38
2023-03-06T21:18:25.106Z,21.70
2023-03-06T21:23:53.808Z,16.52
2023-03-06T21:29:16.752Z,20.90
2023-03-06T21:34:47.242Z,17.70
2023-03-06T21:45:44.241Z,13.00
2023-03-06T21:51:11.865Z,24.77
2023-03-06T21:56:40.753Z,18.45
2023-03-06T22:02:04.397Z,15.65
2023-03-06T22:07:37.421Z,15.32
2023-03-06T22:13:00.655Z,13.30
2023-03-06T22:18:27.391Z,14.20
2023-03-06T22:23:58.487Z,11.63
2023-03-06T22:29:26.965Z,17.08
2023-03-06T22:34:55.856Z,16.33
2023-03-06T22:40:26.293Z,15.97
2023-03-06T22:45:54.708Z,10.65
2023-03-06T22:51:21.942Z,11.65
2023-03-06T22:56:45.945Z,12.13
2023-03-06T23:02:09.140Z,11.63
2023-03-06T23:07:33.768Z,11.18
2023-03-06T23:12:58.222Z,13.93
2023-03-06T23:18:43.429Z,10.45
2023-03-06T23:24:30.952Z,10.75
2023-03-06T23:29:58.845Z,12.70
2023-03-06T23:35:27.752Z,13.15
2023-03-06T23:40:52.741Z,12.02
2023-03-06T23:46:22.982Z,12.87
2023-03-06T23:51:47.712Z,13.00
2023-03-06T23:57:16.313Z,11.57
